createdAt,value
2018-04-27T00:01:11.448Z,9.08
2018-04-27T00:04:14.003Z,9.07
2018-04-27T00:07:16.484Z,8.91
2018-04-27T00:10:19.012Z,8.83
2018-04-27T00:13:21.573Z,8.89
2018-04-27T00:16:24.123Z,8.93
2018-04-27T00:19:26.631Z,8.83
2018-04-27T00:22:29.123Z,8.76
2018-04-27T00:25:31.647Z,8.77
2018-04-27T00:28:34.153Z,8.68
2018-04-27T00:31:36.637Z,8.77
2018-04-27T00:34:39.127Z,8.62
2018-04-27T00:37:41.603Z,8.51
2018-04-27T00:40:44.111Z,8.65
2018-04-27T00:43:46.635Z,8.76
2018-04-27T00:46:49.134Z,8.86
2018-04-27T00:49:51.632Z,8.80
2018-04-27T00:53:05.996Z,8.88
2018-04-27T00:56:08.465Z,8.91
2018-04-27T00:59:10.974Z,8.84
2018-04-27T01:02:13.473Z,8.81
2018-04-27T01:05:15.984Z,8.67
2018-04-27T01:08:18.481Z,8.75
2018-04-27T01:11:20.992Z,8.48
2018-04-27T01:14:23.494Z,8.51
2018-04-27T01:17:25.997Z,8.46
2018-04-27T01:20:28.487Z,8.35
2018-04-27T01:23:30.988Z,8.43
2018-04-27T01:26:33.464Z,8.52
2018-04-27T01:29:35.968Z,8.47
2018-04-27T01:32:38.443Z,8.40
2018-04-27T01:35:40.957Z,8.40
2018-04-27T01:38:43.435Z,8.35
2018-04-27T01:41:45.932Z,8.32
2018-04-27T01:44:48.403Z,8.23
2018-04-27T01:47:50.890Z,8.21
2018-04-27T01:50:53.420Z,8.18
2018-04-27T01:53:55.927Z,8.20
2018-04-27T01:56:58.410Z,8.25
2018-04-27T02:00:00.920Z,8.32
2018-04-27T02:03:03.436Z,7.97
2018-04-27T02:06:05.961Z,7.87
2018-04-27T02:09:08.499Z,7.97
2018-04-27T02:12:11.046Z,7.95
2018-04-27T02:15:13.553Z,7.96
2018-04-27T02:18:16.106Z,8.00
2018-04-27T02:21:18.582Z,7.98
2018-04-27T02:24:21.091Z,8.01
2018-04-27T02:27:23.571Z,7.86
2018-04-27T02:30:26.068Z,7.86
2018-04-27T02:33:28.590Z,7.83
2018-04-27T02:36:31.092Z,7.76
2018-04-27T02:39:33.628Z,7.72
2018-04-27T02:42:36.150Z,7.69
2018-04-27T02:45:38.661Z,7.70
2018-04-27T02:48:41.213Z,7.71
2018-04-27T02:51:43.689Z,7.47
2018-04-27T02:54:46.180Z,7.46
2018-04-27T02:57:48.684Z,7.44
2018-04-27T03:00:51.187Z,7.45
2018-04-27T03:03:53.705Z,7.37
2018-04-27T03:06:56.225Z,7.28
2018-04-27T03:09:58.744Z,7.34
2018-04-27T03:13:01.366Z,7.30
2018-04-27T03:16:03.865Z,7.26
2018-04-27T03:19:06.344Z,7.27
2018-04-27T03:22:08.863Z,7.21
2018-04-27T03:25:11.383Z,7.24
2018-04-27T03:28:13.875Z,7.22
2018-04-27T03:31:16.374Z,7.16
2018-04-27T03:34:18.942Z,7.23
2018-04-27T03:37:21.398Z,7.27
2018-04-27T03:40:23.908Z,7.17
2018-04-27T03:43:26.417Z,7.05
2018-04-27T03:46:28.955Z,7.10
2018-04-27T03:49:31.459Z,7.13
2018-04-27T03:52:34.007Z,7.13
2018-04-27T03:55:36.495Z,7.15
2018-04-27T03:58:39.028Z,7.13
2018-04-27T04:01:53.369Z,7.15
2018-04-27T04:05:07.508Z,7.13
2018-04-27T04:08:10.016Z,7.06
2018-04-27T04:11:12.518Z,6.97
2018-04-27T04:14:15.006Z,7.01
2018-04-27T04:17:17.496Z,7.03
2018-04-27T04:20:19.992Z,7.06
2018-04-27T04:23:22.480Z,7.07
2018-04-27T04:26:24.997Z,7.03
2018-04-27T04:29:27.475Z,7.02
2018-04-27T04:32:29.965Z,7.03
2018-04-27T04:35:32.459Z,6.94
2018-04-27T04:38:35.123Z,7.06
2018-04-27T04:41:37.619Z,7.01
2018-04-27T04:44:40.159Z,7.01
2018-04-27T04:47:42.667Z,7.06
2018-04-27T04:50:46.362Z,7.11
2018-04-27T04:53:48.882Z,7.07
2018-04-27T04:56:51.402Z,7.09
2018-04-27T04:59:53.905Z,7.12
2018-04-27T05:02:56.450Z,7.17
2018-04-27T05:05:58.955Z,7.25
2018-04-27T05:09:01.444Z,7.29
2018-04-27T05:12:03.933Z,7.32
2018-04-27T05:15:06.448Z,7.40
2018-04-27T05:18:11.512Z,7.39
2018-04-27T05:21:14.000Z,7.40
2018-04-27T05:24:16.584Z,7.46
2018-04-27T05:27:19.052Z,7.50
2018-04-27T05:30:21.552Z,7.58
2018-04-27T05:33:24.028Z,7.55
2018-04-27T05:36:26.504Z,7.57
2018-04-27T05:39:28.979Z,7.64
2018-04-27T05:42:31.467Z,7.74
2018-04-27T05:45:33.996Z,7.78
2018-04-27T05:48:36.518Z,7.89
2018-04-27T05:51:39.002Z,7.92
2018-04-27T05:54:41.494Z,8.04
2018-04-27T05:57:44.011Z,8.06
2018-04-27T06:00:46.660Z,8.15
2018-04-27T06:04:00.935Z,8.23
2018-04-27T06:07:03.469Z,8.32
2018-04-27T06:10:06.046Z,8.35
2018-04-27T06:13:08.506Z,8.41
2018-04-27T06:16:11.081Z,8.46
2018-04-27T06:19:13.587Z,8.59
2018-04-27T06:22:16.080Z,8.66
2018-04-27T06:25:18.631Z,8.75
2018-04-27T06:28:21.134Z,8.92
2018-04-27T06:31:23.626Z,8.95
2018-04-27T06:34:26.157Z,9.02
2018-04-27T06:37:28.643Z,9.18
2018-04-27T06:40:31.150Z,9.18
2018-04-27T06:43:34.616Z,9.22
2018-04-27T06:46:37.117Z,9.36
2018-04-27T06:49:39.632Z,9.44
2018-04-27T06:52:42.179Z,9.49
2018-04-27T06:55:44.775Z,9.52
2018-04-27T06:58:47.263Z,9.63
2018-04-27T07:01:49.797Z,9.77
2018-04-27T07:04:52.285Z,9.81
2018-04-27T07:07:54.767Z,9.91
2018-04-27T07:10:57.280Z,10.07
2018-04-27T07:13:59.767Z,10.39
2018-04-27T07:17:02.424Z,10.48
2018-04-27T07:20:04.863Z,10.57
2018-04-27T07:23:07.454Z,10.70
2018-04-27T07:26:10.141Z,10.81
2018-04-27T07:29:12.647Z,10.95
2018-04-27T07:32:15.169Z,11.07
2018-04-27T07:35:17.678Z,11.35
2018-04-27T07:38:20.166Z,11.51
2018-04-27T07:41:22.724Z,11.67
2018-04-27T07:44:25.173Z,11.56
2018-04-27T07:47:27.706Z,11.86
2018-04-27T07:50:30.268Z,12.12
2018-04-27T07:53:32.767Z,12.26
2018-04-27T07:56:35.262Z,12.41
2018-04-27T07:59:37.795Z,12.58
2018-04-27T08:02:40.279Z,12.75
2018-04-27T08:05:42.794Z,12.95
2018-04-27T08:08:45.274Z,13.07
2018-04-27T08:11:47.758Z,13.30
2018-04-27T08:14:50.283Z,13.44
2018-04-27T08:17:52.767Z,13.56
2018-04-27T08:20:55.279Z,13.65
2018-04-27T08:23:57.820Z,13.54
2018-04-27T08:27:00.380Z,13.77
2018-04-27T08:30:02.881Z,14.02
2018-04-27T08:33:05.402Z,13.94
2018-04-27T08:36:08.020Z,14.11
2018-04-27T08:39:10.464Z,14.08
2018-04-27T08:42:12.988Z,14.04
2018-04-27T08:45:15.480Z,14.17
2018-04-27T08:48:17.965Z,14.37
2018-04-27T08:51:20.494Z,14.53
2018-04-27T08:54:23.026Z,14.73
2018-04-27T08:57:25.532Z,14.90
2018-04-27T09:00:28.038Z,15.09
2018-04-27T09:03:30.593Z,15.24
2018-04-27T09:06:35.548Z,15.27
2018-04-27T09:09:38.114Z,15.03
2018-04-27T09:12:40.641Z,15.20
2018-04-27T09:15:43.151Z,15.48
2018-04-27T09:18:45.817Z,15.66
2018-04-27T09:21:48.316Z,15.75
2018-04-27T09:24:50.785Z,16.02
2018-04-27T09:27:53.293Z,15.76
2018-04-27T09:30:55.794Z,15.71
2018-04-27T09:33:58.306Z,16.01
2018-04-27T09:37:00.799Z,16.45
2018-04-27T09:40:03.304Z,16.60
2018-04-27T09:43:05.838Z,16.58
2018-04-27T09:46:08.335Z,16.96
2018-04-27T09:49:10.821Z,17.13
2018-04-27T09:52:13.370Z,17.27
2018-04-27T09:55:15.869Z,17.08
2018-04-27T09:58:18.401Z,16.90
2018-04-27T10:01:20.913Z,17.12
2018-04-27T10:04:23.437Z,16.56
2018-04-27T10:07:25.914Z,16.62
2018-04-27T10:10:28.535Z,16.23
2018-04-27T10:13:31.031Z,16.56
2018-04-27T10:16:33.538Z,16.87
2018-04-27T10:19:40.805Z,17.13
2018-04-27T10:22:43.341Z,17.43
2018-04-27T10:25:45.841Z,17.94
2018-04-27T10:28:48.357Z,17.96
2018-04-27T10:31:50.879Z,17.67
2018-04-27T10:34:53.399Z,17.82
2018-04-27T10:37:55.951Z,17.80
2018-04-27T10:40:58.463Z,17.87
2018-04-27T10:44:00.997Z,18.38
2018-04-27T10:47:03.501Z,18.61
2018-04-27T10:50:06.097Z,18.68
2018-04-27T10:53:08.667Z,19.13
2018-04-27T10:56:11.246Z,19.17
2018-04-27T10:59:13.738Z,19.10
2018-04-27T11:02:16.280Z,19.25
2018-04-27T11:05:18.792Z,19.07
2018-04-27T11:08:21.328Z,18.90
2018-04-27T11:11:24.146Z,19.32
2018-04-27T11:14:26.661Z,18.95
2018-04-27T11:17:29.393Z,19.02
2018-04-27T11:20:31.987Z,18.99
2018-04-27T11:23:34.506Z,18.39
2018-04-27T11:26:37.096Z,17.97
2018-04-27T11:29:39.591Z,18.01
2018-04-27T11:32:42.062Z,18.14
2018-04-27T11:35:44.569Z,18.28
2018-04-27T11:38:47.246Z,18.46
2018-04-27T11:41:49.767Z,19.01
2018-04-27T11:44:52.546Z,19.04
2018-04-27T11:47:55.217Z,19.24
2018-04-27T11:50:57.892Z,19.22
2018-04-27T11:54:00.458Z,19.23
2018-04-27T11:57:03.756Z,19.03
2018-04-27T12:00:06.312Z,19.36
2018-04-27T12:03:08.794Z,19.59
2018-04-27T12:06:11.340Z,19.15
2018-04-27T12:09:13.877Z,19.32
2018-04-27T12:12:17.259Z,18.79
2018-04-27T12:15:19.951Z,18.05
2018-04-27T12:18:22.852Z,17.72
2018-04-27T12:21:25.400Z,17.88
2018-04-27T12:24:27.980Z,18.05
2018-04-27T12:27:30.560Z,18.17
2018-04-27T12:30:33.160Z,18.26
2018-04-27T12:33:35.716Z,18.20
2018-04-27T12:36:38.274Z,17.98
2018-04-27T12:39:40.805Z,17.74
2018-04-27T12:42:43.358Z,18.05
2018-04-27T12:45:45.967Z,18.17
2018-04-27T12:48:48.581Z,18.11
2018-04-27T12:51:51.276Z,17.91
2018-04-27T12:54:53.806Z,18.20
2018-04-27T12:57:56.365Z,18.13
2018-04-27T13:00:58.951Z,18.48
2018-04-27T13:04:01.463Z,18.50
2018-04-27T13:07:03.993Z,18.81
2018-04-27T13:10:06.475Z,18.49
2018-04-27T13:13:09.064Z,18.55
2018-04-27T13:16:11.584Z,18.65
2018-04-27T13:19:14.206Z,18.70
2018-04-27T13:22:16.743Z,18.72
2018-04-27T13:25:19.354Z,19.06
2018-04-27T13:28:21.897Z,18.47
2018-04-27T13:31:24.486Z,18.49
2018-04-27T13:34:27.026Z,18.60
2018-04-27T13:37:29.659Z,18.52
2018-04-27T13:40:32.281Z,18.65
2018-04-27T13:43:34.986Z,18.65
2018-04-27T13:46:37.659Z,18.54
2018-04-27T13:49:40.936Z,18.58
2018-04-27T13:52:43.646Z,18.24
2018-04-27T13:55:46.251Z,18.11
2018-04-27T13:58:48.781Z,18.28
2018-04-27T14:01:51.302Z,18.19
2018-04-27T14:04:53.853Z,18.28
2018-04-27T14:07:56.450Z,17.88
2018-04-27T14:10:59.254Z,17.72
2018-04-27T14:14:01.861Z,17.90
2018-04-27T14:17:05.131Z,18.21
2018-04-27T14:20:08.786Z,18.47
2018-04-27T14:23:11.317Z,18.20
2018-04-27T14:26:14.715Z,18.56
2018-04-27T14:29:22.499Z,18.29
2018-04-27T14:32:26.136Z,18.39
2018-04-27T14:35:28.779Z,18.34
2018-04-27T14:38:31.395Z,18.42
2018-04-27T14:41:33.970Z,18.43
2018-04-27T14:44:36.576Z,18.76
2018-04-27T14:47:39.189Z,18.63
2018-04-27T14:50:41.783Z,18.64
2018-04-27T14:53:44.476Z,18.67
2018-04-27T14:56:47.082Z,18.49
2018-04-27T14:59:50.305Z,18.73
2018-04-27T15:02:52.865Z,18.48
2018-04-27T15:05:55.562Z,18.54
2018-04-27T15:08:58.170Z,18.65
2018-04-27T15:12:00.901Z,18.78
2018-04-27T15:15:04.467Z,18.79
2018-04-27T15:18:07.267Z,18.70
2018-04-27T15:21:09.952Z,18.85
2018-04-27T15:24:12.625Z,19.04
2018-04-27T15:27:15.152Z,18.97
2018-04-27T15:30:18.350Z,19.00
2018-04-27T15:33:20.910Z,18.94
2018-04-27T15:36:23.434Z,18.63
2018-04-27T15:39:25.969Z,18.80
2018-04-27T15:42:29.348Z,18.94
2018-04-27T15:45:31.911Z,18.71
2018-04-27T15:48:34.542Z,18.68
2018-04-27T15:51:37.216Z,18.57
2018-04-27T15:54:39.933Z,18.30
2018-04-27T15:57:42.597Z,18.19
2018-04-27T16:00:45.118Z,18.22
2018-04-27T16:03:47.657Z,17.98
2018-04-27T16:06:50.255Z,18.14
2018-04-27T16:09:53.560Z,18.30
2018-04-27T16:12:56.180Z,18.27
2018-04-27T16:15:58.709Z,18.18
2018-04-27T16:19:02.668Z,18.26
2018-04-27T16:22:05.267Z,18.27
2018-04-27T16:25:07.926Z,18.14
2018-04-27T16:28:10.517Z,18.11
2018-04-27T16:31:14.030Z,18.08
2018-04-27T16:34:16.684Z,17.76
2018-04-27T16:37:19.742Z,17.70
2018-04-27T16:40:22.801Z,17.68
2018-04-27T16:43:25.446Z,17.65
2018-04-27T16:46:28.050Z,17.79
2018-04-27T16:49:30.706Z,17.81
2018-04-27T16:52:33.312Z,17.68
2018-04-27T16:55:35.913Z,17.70
2018-04-27T16:58:38.584Z,17.73
2018-04-27T17:01:41.600Z,17.74
2018-04-27T17:04:44.220Z,17.63
2018-04-27T17:07:47.695Z,17.34
2018-04-27T17:10:50.284Z,17.29
2018-04-27T17:13:54.360Z,17.24
2018-04-27T17:16:57.076Z,17.22
2018-04-27T17:19:59.675Z,17.02
2018-04-27T17:23:02.278Z,17.00
2018-04-27T17:26:04.969Z,16.95
2018-04-27T17:29:07.641Z,16.78
2018-04-27T17:32:10.228Z,16.71
2018-04-27T17:35:12.907Z,16.89
2018-04-27T17:38:15.421Z,16.96
2018-04-27T17:41:17.973Z,16.78
2018-04-27T17:44:20.684Z,16.52
2018-04-27T17:47:23.218Z,16.41
2018-04-27T17:50:25.793Z,16.37
2018-04-27T17:53:28.510Z,16.32
2018-04-27T17:56:31.835Z,16.43
2018-04-27T17:59:34.498Z,16.12
2018-04-27T18:02:38.138Z,15.95
2018-04-27T18:05:40.697Z,15.92
2018-04-27T18:08:43.480Z,15.82
2018-04-27T18:11:46.409Z,15.75
2018-04-27T18:14:48.928Z,15.66
2018-04-27T18:17:51.631Z,15.62
2018-04-27T18:20:54.210Z,15.48
2018-04-27T18:23:56.872Z,15.69
2018-04-27T18:26:59.528Z,15.61
2018-04-27T18:30:02.129Z,15.25
2018-04-27T18:33:04.756Z,15.19
2018-04-27T18:36:08.703Z,15.25
2018-04-27T18:39:11.385Z,15.12
2018-04-27T18:42:14.042Z,15.19
2018-04-27T18:45:16.686Z,15.07
2018-04-27T18:48:20.179Z,15.08
2018-04-27T18:51:22.963Z,14.92
2018-04-27T18:54:25.729Z,14.77
2018-04-27T18:57:29.704Z,14.82
2018-04-27T19:00:33.380Z,14.68
2018-04-27T19:03:35.980Z,14.59
2018-04-27T19:06:38.812Z,14.51
2018-04-27T19:09:42.473Z,14.36
2018-04-27T19:12:45.518Z,14.32
2018-04-27T19:15:48.348Z,14.10
2018-04-27T19:18:50.974Z,14.02
2018-04-27T19:21:53.590Z,13.85
2018-04-27T19:24:57.169Z,13.95
2018-04-27T19:27:59.823Z,13.78
2018-04-27T19:31:02.462Z,13.58
2018-04-27T19:34:05.075Z,13.51
2018-04-27T19:37:07.777Z,13.54
2018-04-27T19:40:10.334Z,13.62
2018-04-27T19:43:12.913Z,13.51
2018-04-27T19:46:15.561Z,13.52
2018-04-27T19:49:18.190Z,13.26
2018-04-27T19:52:21.400Z,13.33
2018-04-27T19:55:24.134Z,13.13
2018-04-27T19:58:26.686Z,13.16
2018-04-27T20:01:29.341Z,13.11
2018-04-27T20:04:31.918Z,12.88
2018-04-27T20:07:34.456Z,12.91
2018-04-27T20:10:38.888Z,12.82
2018-04-27T20:13:41.373Z,12.74
2018-04-27T20:16:44.078Z,12.73
2018-04-27T20:19:47.784Z,12.61
2018-04-27T20:22:50.398Z,12.67
2018-04-27T20:25:55.409Z,12.71
2018-04-27T20:28:58.036Z,12.53
2018-04-27T20:32:00.719Z,12.56
2018-04-27T20:35:09.854Z,12.53
2018-04-27T20:38:21.082Z,12.55
2018-04-27T20:41:26.498Z,12.95
2018-04-27T20:44:29.156Z,12.84
2018-04-27T20:47:32.523Z,12.57
2018-04-27T20:50:35.113Z,12.39
2018-04-27T20:57:16.044Z,12.32
2018-04-27T21:00:18.580Z,12.19
2018-04-27T21:03:21.207Z,12.03
2018-04-27T21:06:23.870Z,12.19
2018-04-27T21:09:26.391Z,12.08
2018-04-27T21:12:28.953Z,12.13
2018-04-27T21:15:31.480Z,11.98
2018-04-27T21:18:34.046Z,11.90
2018-04-27T21:21:36.575Z,11.93
2018-04-27T21:24:39.124Z,11.92
2018-04-27T21:27:43.236Z,11.90
2018-04-27T21:30:46.346Z,11.88
2018-04-27T21:33:51.667Z,11.94
2018-04-27T21:36:54.304Z,11.88
2018-04-27T21:39:56.803Z,11.89
2018-04-27T21:42:59.369Z,11.87
2018-04-27T21:46:01.895Z,11.84
2018-04-27T21:52:47.935Z,11.73
2018-04-27T21:55:50.461Z,11.73
2018-04-27T21:58:54.380Z,11.73
2018-04-27T22:01:56.967Z,11.75
2018-04-27T22:05:11.113Z,11.69
2018-04-27T22:08:21.140Z,11.67
2018-04-27T22:11:39.455Z,11.72
2018-04-27T22:14:41.975Z,11.77
2018-04-27T22:17:45.348Z,11.77
2018-04-27T22:20:49.261Z,11.62
2018-04-27T22:23:58.707Z,11.62
2018-04-27T22:27:03.630Z,11.54
2018-04-27T22:33:41.570Z,11.53
2018-04-27T22:36:44.900Z,11.84
2018-04-27T22:39:49.070Z,11.55
2018-04-27T22:42:54.156Z,11.51
2018-04-27T22:46:16.260Z,11.39
2018-04-27T22:49:19.625Z,11.35
2018-04-27T22:52:22.158Z,11.38
2018-04-27T22:55:24.701Z,11.34
2018-04-27T22:58:27.214Z,11.46
2018-04-27T23:01:29.876Z,11.24
2018-04-27T23:04:32.363Z,11.32
2018-04-27T23:07:37.688Z,11.29
2018-04-27T23:10:50.554Z,11.26
2018-04-27T23:17:30.006Z,11.27
2018-04-27T23:20:32.449Z,11.29
2018-04-27T23:23:35.023Z,11.23
2018-04-27T23:26:37.507Z,11.14
2018-04-27T23:29:40.047Z,11.10
2018-04-27T23:32:42.568Z,11.14
2018-04-27T23:35:50.598Z,11.12
2018-04-27T23:38:53.167Z,11.15
2018-04-27T23:41:55.700Z,11.14
2018-04-27T23:44:58.193Z,11.12
2018-04-27T23:48:00.712Z,11.15
2018-04-27T23:51:03.281Z,11.08
2018-04-27T23:54:05.922Z,11.01
2018-04-27T23:57:08.503Z,10.95
